Time;durP1;ratioP1;P1;durP2;ratioP2;P2;SDS_P1;SDS_P2;PMS_P1;PMS_P2;Temp;Humidity;BMP_temperature;BMP_pressure;BME280_temperature;BME280_humidity;BME280_pressure;Samples;Min_cycle;Max_cycle;Signal;HPM_P1;HPM_P2
2022/04/13 00:00:58;;;;;;;3.97;2.10;;;;;19.30;100988.00;;;;5050201;28;20195;-77
2022/04/13 00:03:27;;;;;;;3.08;2.22;;;;;19.30;100988.00;;;;5050313;28;20310;-77
2022/04/13 00:05:55;;;;;;;4.45;2.10;;;;;19.30;100987.00;;;;5063153;28;20202;-77
2022/04/13 00:08:22;;;;;;;2.05;1.85;;;;;19.20;100991.00;;;;5069098;28;20567;-77
2022/04/13 00:10:49;;;;;;;3.08;2.47;;;;;19.20;100997.00;;;;5066781;28;20545;-77
2022/04/13 00:13:17;;;;;;;2.65;1.90;;;;;19.20;100996.00;;;;5055491;28;20195;-77
2022/04/13 00:15:44;;;;;;;3.20;2.40;;;;;19.20;100999.00;;;;5052828;28;20722;-77
2022/04/13 00:18:11;;;;;;;2.75;2.10;;;;;19.10;100998.00;;;;5064960;28;20241;-77
2022/04/13 00:20:40;;;;;;;2.75;2.10;;;;;19.10;101000.00;;;;5056621;28;20244;-77
2022/04/13 00:23:07;;;;;;;2.90;1.95;;;;;19.10;101004.00;;;;5057519;28;20596;-77
2022/04/13 00:25:38;;;;;;;5.00;2.78;;;;;19.00;101012.00;;;;5064404;28;20223;-77
2022/04/13 00:28:06;;;;;;;3.30;2.08;;;;;19.00;101006.00;;;;5063879;28;20201;-77
2022/04/13 00:30:34;;;;;;;3.50;2.20;;;;;19.00;101006.00;;;;5062772;28;20278;-77
2022/04/13 00:33:02;;;;;;;3.20;1.75;;;;;19.00;101008.00;;;;5069176;28;20195;-77
2022/04/13 00:35:29;;;;;;;3.33;1.88;;;;;18.90;101007.00;;;;5065049;28;20306;-77
2022/04/13 00:37:58;;;;;;;2.85;2.30;;;;;18.90;101013.00;;;;5060100;28;20609;-77
2022/04/13 00:40:26;;;;;;;3.17;1.83;;;;;18.90;101015.00;;;;5067064;28;20277;-77
2022/04/13 00:42:53;;;;;;;2.60;1.90;;;;;18.80;101019.00;;;;5058141;28;20202;-77
2022/04/13 00:45:20;;;;;;;3.13;2.17;;;;;18.80;101023.00;;;;5063256;28;20191;-77
2022/04/13 00:47:48;;;;;;;3.47;2.25;;;;;18.80;101016.00;;;;5067554;28;20195;-77
2022/04/13 00:50:15;;;;;;;5.13;2.10;;;;;18.70;101020.00;;;;5061333;28;20194;-77
2022/04/13 00:52:46;;;;;;;5.55;2.95;;;;;18.70;101020.00;;;;5049745;28;20199;-77
2022/04/13 00:55:16;;;;;;;4.15;1.77;;;;;18.60;101026.00;;;;5065869;28;20191;-77
2022/04/13 00:57:44;;;;;;;4.15;2.15;;;;;18.60;101030.00;;;;5051664;28;20211;-77
2022/04/13 01:00:12;;;;;;;2.80;1.60;;;;;18.60;101033.00;;;;5070213;28;20191;-77
2022/04/13 01:02:42;;;;;;;3.92;2.47;;;;;18.60;101028.00;;;;5072634;28;20201;-77
2022/04/13 01:05:11;;;;;;;4.72;2.40;;;;;18.50;101028.00;;;;5070156;28;20249;-77
2022/04/13 01:07:39;;;;;;;4.82;2.13;;;;;18.50;101026.00;;;;5058744;28;20660;-77
2022/04/13 01:10:08;;;;;;;4.70;2.17;;;;;18.40;101042.00;;;;5065330;28;20202;-77
2022/04/13 01:12:37;;;;;;;4.07;2.22;;;;;18.40;101041.00;;;;5066241;28;20196;-77
2022/04/13 01:15:05;;;;;;;2.70;1.70;;;;;18.40;101060.00;;;;5060648;28;20199;-77
2022/04/13 01:17:32;;;;;;;2.85;2.00;;;;;18.30;101057.00;;;;5068674;28;20218;-78
2022/04/13 01:20:01;;;;;;;3.28;2.28;;;;;18.30;101052.00;;;;5070997;28;20191;-77
2022/04/13 01:22:30;;;;;;;2.15;1.80;;;;;18.30;101058.00;;;;5061572;28;20188;-77
2022/04/13 01:24:57;;;;;;;3.22;2.13;;;;;18.30;101057.00;;;;5060772;28;20216;-78
2022/04/13 01:27:26;;;;;;;6.07;2.10;;;;;18.20;101064.00;;;;5064723;28;20194;-77
2022/04/13 01:29:54;;;;;;;6.78;2.60;;;;;18.20;101066.00;;;;5067169;28;20206;-77
2022/04/13 01:32:22;;;;;;;3.45;2.22;;;;;18.10;101066.00;;;;5070407;28;20650;-77
2022/04/13 01:34:50;;;;;;;2.78;2.10;;;;;18.10;101081.00;;;;5070963;28;20270;-77
2022/04/13 01:37:18;;;;;;;3.63;2.10;;;;;18.10;101071.00;;;;5069806;28;20219;-77
2022/04/13 01:39:47;;;;;;;4.60;2.10;;;;;18.10;101079.00;;;;5061471;28;20792;-77
2022/04/13 01:42:25;;;;;;;3.88;2.50;;;;;18.00;101081.00;;;;5059314;28;20203;-77
2022/04/13 01:45:05;;;;;;;2.83;2.00;;;;;17.90;101080.00;;;;5065150;28;20195;-76
2022/04/13 01:47:43;;;;;;;5.93;2.30;;;;;17.90;101086.00;;;;5065372;28;20192;-76
2022/04/13 01:50:12;;;;;;;4.32;2.58;;;;;18.00;101090.00;;;;5063686;28;20757;-77
2022/04/13 01:52:41;;;;;;;4.68;2.03;;;;;18.00;101092.00;;;;5076130;28;20203;-76
2022/04/13 01:55:12;;;;;;;4.50;2.40;;;;;17.90;101090.00;;;;5063880;28;20196;-76
2022/04/13 01:57:43;;;;;;;3.50;2.20;;;;;17.90;101094.00;;;;5074927;28;20211;-76
2022/04/13 02:00:13;;;;;;;3.17;2.33;;;;;17.90;101085.00;;;;5058233;28;20196;-76
2022/04/13 02:02:41;;;;;;;5.40;2.15;;;;;17.90;101088.00;;;;5065302;28;20607;-76
2022/04/13 02:05:09;;;;;;;4.30;2.05;;;;;17.90;101092.00;;;;5068378;28;20203;-76
2022/04/13 02:07:37;;;;;;;3.40;2.65;;;;;17.90;101089.00;;;;5067847;28;20310;-76
2022/04/13 02:10:05;;;;;;;4.20;1.98;;;;;17.90;101089.00;;;;5056736;28;20188;-77
2022/04/13 02:12:44;;;;;;;4.13;2.50;;;;;17.80;101094.00;;;;5065119;28;20196;-77
2022/04/13 02:15:17;;;;;;;3.10;2.15;;;;;17.90;101099.00;;;;5065470;28;20234;-76
2022/04/13 02:17:45;;;;;;;2.72;2.20;;;;;17.90;101096.00;;;;5058546;28;20302;-76
2022/04/13 02:20:20;;;;;;;4.53;2.42;;;;;17.80;101087.00;;;;5074176;28;20199;-76
2022/04/13 02:22:53;;;;;;;2.88;2.10;;;;;17.80;101092.00;;;;5077376;28;20274;-76
2022/04/13 02:25:22;;;;;;;5.47;2.05;;;;;17.80;101085.00;;;;5077788;28;20218;-76
2022/04/13 02:28:00;;;;;;;3.15;2.50;;;;;17.80;101095.00;;;;5072428;28;20195;-76
2022/04/13 02:30:44;;;;;;;2.78;2.10;;;;;17.80;101091.00;;;;5059057;28;20558;-76
2022/04/13 02:33:13;;;;;;;3.22;2.50;;;;;17.80;101094.00;;;;5062472;28;20182;-76
2022/04/13 02:35:40;;;;;;;4.85;2.30;;;;;17.90;101104.00;;;;5077626;28;20223;-76
2022/04/13 02:38:08;;;;;;;3.95;2.60;;;;;17.90;101094.00;;;;5077674;28;20595;-76
2022/04/13 02:40:36;;;;;;;3.40;2.55;;;;;17.90;101099.00;;;;5074509;28;20190;-77
2022/04/13 02:43:04;;;;;;;4.43;2.33;;;;;17.80;101102.00;;;;5064242;28;20199;-77
2022/04/13 02:45:31;;;;;;;2.85;2.38;;;;;17.80;101103.00;;;;5064320;28;20207;-78
2022/04/13 02:47:59;;;;;;;3.10;2.22;;;;;17.80;101105.00;;;;5064568;28;20199;-77
2022/04/13 02:50:26;;;;;;;3.67;2.83;;;;;17.80;101094.00;;;;5064607;28;20661;-77
2022/04/13 02:52:56;;;;;;;6.03;2.63;;;;;17.80;101109.00;;;;5056215;28;20210;-77
2022/04/13 02:55:23;;;;;;;4.03;2.85;;;;;17.80;101115.00;;;;5051000;28;20937;-76
2022/04/13 02:57:50;;;;;;;3.35;2.72;;;;;17.70;101115.00;;;;5064152;28;20230;-77
2022/04/13 03:00:20;;;;;;;2.97;2.42;;;;;17.70;101118.00;;;;5068990;28;20195;-76
2022/04/13 03:02:47;;;;;;;4.75;2.45;;;;;17.70;101120.00;;;;5055687;28;20210;-77
2022/04/13 03:05:14;;;;;;;3.40;2.63;;;;;17.70;101123.00;;;;5066752;28;20198;-76
2022/04/13 03:07:42;;;;;;;6.32;2.42;;;;;17.60;101122.00;;;;5061353;28;20207;-77
2022/04/13 03:10:10;;;;;;;8.68;3.13;;;;;17.60;101124.00;;;;5064426;28;20207;-77
2022/04/13 03:12:37;;;;;;;3.20;2.60;;;;;17.60;101119.00;;;;5064520;28;20213;-77
2022/04/13 03:15:06;;;;;;;3.50;2.70;;;;;17.60;101125.00;;;;5050780;28;20274;-76
2022/04/13 03:17:34;;;;;;;3.88;2.85;;;;;17.60;101121.00;;;;5068195;28;20310;-76
2022/04/13 03:20:02;;;;;;;4.05;2.67;;;;;17.60;101124.00;;;;5067762;28;20191;-76
2022/04/13 03:22:29;;;;;;;5.50;3.10;;;;;17.60;101124.00;;;;5056392;28;20196;-76
2022/04/13 03:24:59;;;;;;;3.75;2.58;;;;;17.60;101131.00;;;;5054756;28;20702;-77
2022/04/13 03:27:27;;;;;;;3.55;2.55;;;;;17.60;101136.00;;;;5059670;28;20666;-76
2022/04/13 03:29:54;;;;;;;4.18;3.00;;;;;17.50;101138.00;;;;5063801;28;20260;-76
2022/04/13 03:32:22;;;;;;;10.07;3.45;;;;;17.50;101134.00;;;;5065766;28;20257;-77
2022/04/13 03:34:51;;;;;;;4.65;3.00;;;;;17.50;101141.00;;;;5058460;28;20187;-76
2022/04/13 03:37:19;;;;;;;5.10;3.10;;;;;17.50;101141.00;;;;5069335;28;20197;-77
2022/04/13 03:39:46;;;;;;;4.57;2.78;;;;;17.50;101141.00;;;;5066935;28;20190;-77
2022/04/13 03:42:14;;;;;;;3.25;2.83;;;;;17.50;101144.00;;;;5073121;28;20233;-77
2022/04/13 03:44:42;;;;;;;4.22;3.20;;;;;17.50;101141.00;;;;5053971;28;20211;-76
2022/04/13 03:47:09;;;;;;;4.75;3.00;;;;;17.50;101148.00;;;;5061286;28;20187;-76
2022/04/13 03:49:36;;;;;;;5.78;3.63;;;;;17.40;101150.00;;;;5079155;28;20222;-77
2022/04/13 03:52:05;;;;;;;4.45;2.97;;;;;17.40;101148.00;;;;5072483;28;20203;-76
2022/04/13 03:54:33;;;;;;;4.88;3.22;;;;;17.40;101164.00;;;;5058350;28;20286;-76
2022/04/13 03:57:13;;;;;;;5.10;3.05;;;;;17.30;101149.00;;;;5059831;28;20203;-76
2022/04/13 03:59:49;;;;;;;5.65;3.13;;;;;17.30;101157.00;;;;5066985;28;20947;-76
2022/04/13 04:02:18;;;;;;;3.40;2.97;;;;;17.30;101157.00;;;;5055060;28;20195;-76
2022/04/13 04:04:46;;;;;;;4.85;3.13;;;;;17.30;101155.00;;;;5066993;28;20206;-76
2022/04/13 04:07:22;;;;;;;5.90;3.33;;;;;17.20;101158.00;;;;5064587;28;20764;-77
2022/04/13 04:09:56;;;;;;;5.50;3.38;;;;;17.20;101160.00;;;;5055122;28;20558;-76
2022/04/13 04:12:36;;;;;;;5.13;3.80;;;;;17.20;101155.00;;;;5066546;28;20190;-76
2022/04/13 04:15:05;;;;;;;3.65;2.92;;;;;17.20;101164.00;;;;5063678;28;20205;-76
2022/04/13 04:17:34;;;;;;;4.90;3.25;;;;;17.20;101166.00;;;;5064394;28;20191;-76
2022/04/13 04:20:02;;;;;;;4.65;3.58;;;;;17.20;101162.00;;;;5073986;28;20230;-76
2022/04/13 04:22:31;;;;;;;6.22;3.63;;;;;17.20;101171.00;;;;5074029;28;20195;-76
2022/04/13 04:25:05;;;;;;;7.10;3.55;;;;;17.10;101169.00;;;;5073318;28;20697;-77
2022/04/13 04:27:41;;;;;;;5.75;3.13;;;;;17.10;101173.00;;;;5072277;28;20228;-76
2022/04/13 04:30:25;;;;;;;4.90;3.65;;;;;17.10;101168.00;;;;5067907;28;20198;-77
2022/04/13 04:33:02;;;;;;;6.22;3.60;;;;;17.10;101173.00;;;;5073591;28;20529;-76
2022/04/13 04:35:29;;;;;;;5.82;3.67;;;;;17.20;101177.00;;;;5073035;28;20227;-76
2022/04/13 04:38:00;;;;;;;5.90;3.97;;;;;17.10;101186.00;;;;5073349;28;20222;-76
2022/04/13 04:40:34;;;;;;;5.55;4.10;;;;;17.10;101187.00;;;;5067855;28;20199;-76
2022/04/13 04:43:01;;;;;;;4.18;3.47;;;;;17.20;101185.00;;;;5072463;28;20209;-77
2022/04/13 04:45:39;;;;;;;6.35;3.53;;;;;17.10;101189.00;;;;5068074;28;20194;-76
2022/04/13 04:48:08;;;;;;;5.43;3.55;;;;;17.20;101199.00;;;;5067895;28;20179;-76
2022/04/13 04:50:42;;;;;;;4.97;4.00;;;;;17.10;101181.00;;;;5061656;28;20534;-76
2022/04/13 04:53:12;;;;;;;6.28;4.07;;;;;17.20;101192.00;;;;5066812;28;20188;-76
2022/04/13 04:55:42;;;;;;;6.32;4.05;;;;;17.20;101203.00;;;;5064978;28;20204;-77
2022/04/13 04:58:16;;;;;;;5.60;4.18;;;;;17.20;101208.00;;;;5064149;28;20226;-77
2022/04/13 05:00:44;;;;;;;8.50;4.20;;;;;17.20;101207.00;;;;5059930;28;20199;-77
2022/04/13 05:03:20;;;;;;;9.68;4.80;;;;;17.20;101228.00;;;;5068734;28;20187;-76
2022/04/13 05:05:49;;;;;;;6.38;4.03;;;;;17.30;101222.00;;;;5063372;28;20195;-77
2022/04/13 05:08:21;;;;;;;4.82;4.20;;;;;17.20;101231.00;;;;5072211;28;20604;-77
2022/04/13 05:10:51;;;;;;;6.05;4.05;;;;;17.30;101236.00;;;;5060607;28;20541;-75
2022/04/13 05:13:24;;;;;;;8.07;4.45;;;;;17.30;101228.00;;;;5065055;28;20202;-76
2022/04/13 05:15:52;;;;;;;5.10;4.25;;;;;17.40;101236.00;;;;5072679;28;20590;-77
2022/04/13 05:18:28;;;;;;;5.03;3.83;;;;;17.30;101238.00;;;;5063805;28;20301;-77
2022/04/13 05:21:04;;;;;;;6.70;4.38;;;;;17.30;101243.00;;;;5073909;28;20190;-76
2022/04/13 05:23:43;;;;;;;6.28;4.55;;;;;17.30;101250.00;;;;5072241;28;20191;-77
2022/04/13 05:26:18;;;;;;;7.30;4.68;;;;;17.40;101251.00;;;;5063574;28;20218;-78
2022/04/13 05:28:47;;;;;;;4.90;3.88;;;;;17.50;101254.00;;;;5069115;28;20217;-79
2022/04/13 05:31:15;;;;;;;6.05;4.43;;;;;17.50;101262.00;;;;5066216;28;20229;-78
2022/04/13 05:33:42;;;;;;;7.05;4.57;;;;;17.50;101261.00;;;;5068214;28;20199;-78
2022/04/13 05:36:09;;;;;;;6.00;4.35;;;;;17.60;101264.00;;;;5067231;28;20673;-78
2022/04/13 05:38:39;;;;;;;5.45;4.07;;;;;17.60;101274.00;;;;5049558;28;20728;-78
2022/04/13 05:41:08;;;;;;;5.50;4.60;;;;;17.70;101278.00;;;;5061168;28;20199;-78
2022/04/13 05:43:36;;;;;;;7.00;4.30;;;;;17.70;101282.00;;;;5063947;28;20369;-78
2022/04/13 05:46:03;;;;;;;6.57;4.47;;;;;17.70;101279.00;;;;5070758;28;20616;-78
2022/04/13 05:48:31;;;;;;;6.35;4.47;;;;;17.80;101274.00;;;;5069838;28;20635;-78
2022/04/13 05:50:59;;;;;;;7.30;4.47;;;;;17.80;101284.00;;;;5071335;28;20198;-78
2022/04/13 05:53:27;;;;;;;6.38;4.40;;;;;17.90;101277.00;;;;5056441;28;20206;-79
2022/04/13 05:55:56;;;;;;;6.35;4.32;;;;;17.90;101279.00;;;;5068794;28;20283;-79
2022/04/13 05:58:28;;;;;;;6.70;4.13;;;;;17.90;101289.00;;;;5072635;28;20305;-79
2022/04/13 06:00:57;;;;;;;6.00;5.00;;;;;18.00;101295.00;;;;5076868;28;20922;-78
2022/04/13 06:03:24;;;;;;;6.00;4.50;;;;;18.00;101290.00;;;;5072635;28;20199;-78
2022/04/13 06:05:52;;;;;;;6.82;4.65;;;;;18.00;101285.00;;;;5072835;28;20198;-78
2022/04/13 06:08:19;;;;;;;5.47;4.72;;;;;18.10;101296.00;;;;5068100;28;20200;-78
2022/04/13 06:10:47;;;;;;;5.75;4.65;;;;;18.20;101304.00;;;;5058829;28;20419;-79
2022/04/13 06:13:15;;;;;;;8.38;5.05;;;;;18.20;101300.00;;;;5068794;28;20198;-76
2022/04/13 06:15:44;;;;;;;7.80;4.85;;;;;18.20;101305.00;;;;5072027;28;20203;-78
2022/04/13 06:18:12;;;;;;;6.55;4.40;;;;;18.30;101313.00;;;;5059018;28;20223;-77
2022/04/13 06:20:39;;;;;;;5.85;4.45;;;;;18.30;101317.00;;;;5054800;28;20196;-77
2022/04/13 06:23:06;;;;;;;8.98;5.32;;;;;18.40;101316.00;;;;5066639;28;20578;-77
2022/04/13 06:25:34;;;;;;;10.00;4.75;;;;;18.40;101321.00;;;;5067634;28;20284;-77
2022/04/13 06:28:01;;;;;;;7.53;5.07;;;;;18.50;101320.00;;;;5072474;28;20669;-77
2022/04/13 06:30:28;;;;;;;7.05;4.88;;;;;18.60;101330.00;;;;5068937;28;20197;-78
2022/04/13 06:32:57;;;;;;;7.18;5.30;;;;;18.60;101328.00;;;;5071085;28;20256;-78
2022/04/13 06:35:25;;;;;;;6.93;5.22;;;;;18.80;101328.00;;;;5063514;28;20234;-77
2022/04/13 06:37:52;;;;;;;9.00;5.88;;;;;18.90;101331.00;;;;5062679;28;20203;-76
2022/04/13 06:40:19;;;;;;;9.82;6.22;;;;;19.00;101342.00;;;;5071810;28;20219;-77
2022/04/13 06:42:47;;;;;;;9.57;5.63;;;;;19.00;101344.00;;;;5071543;28;20627;-77
2022/04/13 06:45:16;;;;;;;8.98;6.18;;;;;19.10;101349.00;;;;5067700;28;20195;-77
2022/04/13 06:47:44;;;;;;;8.10;6.40;;;;;19.20;101346.00;;;;5066155;28;20206;-77
2022/04/13 06:50:13;;;;;;;9.43;6.22;;;;;19.30;101352.00;;;;5055155;28;20732;-77
2022/04/13 06:52:42;;;;;;;9.07;6.53;;;;;19.40;101358.00;;;;5064475;28;20195;-78
2022/04/13 06:55:10;;;;;;;7.65;5.78;;;;;19.60;101361.00;;;;5070832;28;20199;-77
2022/04/13 06:57:38;;;;;;;8.00;5.95;;;;;19.70;101356.00;;;;5061528;28;20203;-77
2022/04/13 07:00:07;;;;;;;10.50;6.28;;;;;19.80;101359.00;;;;5063927;28;20646;-78
2022/04/13 07:02:35;;;;;;;10.35;7.38;;;;;19.80;101375.00;;;;5055607;28;20213;-77
2022/04/13 07:05:03;;;;;;;8.02;6.85;;;;;20.00;101380.00;;;;5053683;28;20242;-80
2022/04/13 07:07:32;;;;;;;8.95;6.63;;;;;20.10;101376.00;;;;5051505;28;20598;-76
2022/04/13 07:09:59;;;;;;;11.15;6.47;;;;;20.10;101375.00;;;;5049802;28;20658;-76
2022/04/13 07:12:33;;;;;;;10.63;6.40;;;;;20.20;101374.00;;;;5062188;28;20202;-76
2022/04/13 07:15:01;;;;;;;10.50;6.85;;;;;20.30;101373.00;;;;5068860;28;20195;-76
2022/04/13 07:17:28;;;;;;;10.25;6.80;;;;;20.40;101384.00;;;;5069507;28;20210;-76
2022/04/13 07:19:55;;;;;;;7.85;6.03;;;;;20.50;101396.00;;;;5070113;28;20239;-76
2022/04/13 07:22:23;;;;;;;9.30;6.53;;;;;20.50;101408.00;;;;5063633;28;20200;-77
2022/04/13 07:24:52;;;;;;;8.70;5.93;;;;;20.50;101405.00;;;;5060164;28;20199;-76
2022/04/13 07:27:20;;;;;;;9.73;5.97;;;;;20.60;101403.00;;;;5055319;28;20243;-76
2022/04/13 07:29:47;;;;;;;9.50;5.53;;;;;20.60;101400.00;;;;5061910;28;20253;-76
2022/04/13 07:32:14;;;;;;;9.48;6.63;;;;;20.70;101399.00;;;;5066600;28;20252;-77
2022/04/13 07:34:41;;;;;;;10.18;5.95;;;;;20.80;101398.00;;;;5065311;28;20697;-77
2022/04/13 07:37:15;;;;;;;9.65;6.10;;;;;20.80;101395.00;;;;5065159;28;20234;-75
2022/04/13 07:39:42;;;;;;;9.43;6.28;;;;;20.90;101398.00;;;;5054641;28;20277;-76
2022/04/13 07:42:11;;;;;;;7.45;5.85;;;;;20.90;101408.00;;;;5050927;28;20600;-76
2022/04/13 07:44:38;;;;;;;8.10;6.07;;;;;21.00;101407.00;;;;5049932;28;20222;-76
2022/04/13 07:47:05;;;;;;;7.85;5.35;;;;;21.00;101409.00;;;;5057853;28;20203;-76
2022/04/13 07:49:35;;;;;;;8.30;5.55;;;;;21.10;101412.00;;;;5054970;28;20191;-76
2022/04/13 07:52:02;;;;;;;7.07;5.68;;;;;21.20;101423.00;;;;5058605;28;20191;-76
2022/04/13 07:54:30;;;;;;;8.13;5.78;;;;;21.30;101419.00;;;;5059990;28;20666;-76
2022/04/13 07:56:58;;;;;;;8.02;5.30;;;;;21.40;101425.00;;;;5063076;28;20283;-76
2022/04/13 07:59:27;;;;;;;9.00;5.88;;;;;21.40;101427.00;;;;5065739;28;20625;-76
2022/04/13 08:01:55;;;;;;;9.02;6.55;;;;;21.50;101422.00;;;;5063443;28;20192;-76
2022/04/13 08:04:22;;;;;;;9.98;6.03;;;;;21.60;101422.00;;;;5055040;28;20210;-77
2022/04/13 08:06:50;;;;;;;8.63;6.22;;;;;21.60;101429.00;;;;5060589;28;20192;-76
2022/04/13 08:09:17;;;;;;;9.75;5.97;;;;;21.70;101435.00;;;;5063233;28;20195;-76
2022/04/13 08:11:45;;;;;;;7.03;5.50;;;;;21.70;101439.00;;;;5056929;28;20190;-76
2022/04/13 08:14:13;;;;;;;7.90;5.57;;;;;21.70;101438.00;;;;5057652;28;20245;-76
2022/04/13 08:16:42;;;;;;;7.18;5.18;;;;;21.80;101440.00;;;;5048326;28;20200;-76
2022/04/13 08:19:09;;;;;;;8.40;4.93;;;;;21.90;101445.00;;;;5055182;28;20239;-76
2022/04/13 08:21:38;;;;;;;9.30;5.45;;;;;22.00;101445.00;;;;5053121;28;20214;-77
2022/04/13 08:24:06;;;;;;;7.47;5.32;;;;;22.00;101449.00;;;;5069422;28;20291;-76
2022/04/13 08:26:33;;;;;;;6.70;5.47;;;;;22.20;101455.00;;;;5058217;28;20231;-77
2022/04/13 08:29:01;;;;;;;9.30;4.85;;;;;22.20;101445.00;;;;5066849;28;20198;-76
2022/04/13 08:31:29;;;;;;;6.93;4.43;;;;;22.30;101450.00;;;;5061539;28;20203;-75
2022/04/13 08:33:58;;;;;;;7.57;5.43;;;;;22.50;101453.00;;;;5054193;28;20196;-75
2022/04/13 08:36:25;;;;;;;6.95;5.18;;;;;22.60;101452.00;;;;5060110;28;20226;-75
2022/04/13 08:38:52;;;;;;;8.45;4.50;;;;;22.80;101446.00;;;;5055797;28;20211;-74
2022/04/13 08:41:27;;;;;;;9.88;4.72;;;;;22.90;101451.00;;;;5056881;28;20203;-75
2022/04/13 08:44:02;;;;;;;7.25;4.35;;;;;23.10;101459.00;;;;5067862;28;20216;-76
2022/04/13 08:46:33;;;;;;;5.65;4.28;;;;;23.20;101454.00;;;;5058576;28;20684;-75
2022/04/13 08:49:05;;;;;;;5.72;4.32;;;;;23.30;101451.00;;;;5056781;28;20585;-75
2022/04/13 08:51:35;;;;;;;9.13;4.13;;;;;23.50;101465.00;;;;5059233;28;20217;-75
2022/04/13 08:54:12;;;;;;;5.43;2.45;;;;;23.70;101457.00;;;;5056069;28;20637;-75
2022/04/13 08:56:43;;;;;;;5.65;3.10;;;;;23.80;101459.00;;;;5054814;28;20207;-75
2022/04/13 08:59:18;;;;;;;3.97;2.70;;;;;23.90;101466.00;;;;5055387;28;20191;-75
2022/04/13 09:01:59;;;;;;;5.18;1.80;;;;;24.00;101471.00;;;;5057726;28;20190;-76
2022/04/13 09:04:36;;;;;;;6.25;2.33;;;;;24.20;101477.00;;;;5060121;28;20238;-76
2022/04/13 09:07:06;;;;;;;3.88;2.53;;;;;24.20;101478.00;;;;5060874;28;20187;-76
2022/04/13 09:09:41;;;;;;;5.60;2.40;;;;;24.20;101475.00;;;;5056040;28;20294;-78
2022/04/13 09:12:10;;;;;;;3.42;2.42;;;;;24.20;101488.00;;;;5057713;28;20277;-75
2022/04/13 09:14:40;;;;;;;4.78;2.40;;;;;24.20;101480.00;;;;5053771;28;20195;-76
2022/04/13 09:17:08;;;;;;;5.43;2.30;;;;;24.20;101486.00;;;;5056174;28;20195;-76
2022/04/13 09:19:38;;;;;;;4.22;2.67;;;;;24.10;101482.00;;;;5063249;28;21034;-76
2022/04/13 09:22:06;;;;;;;5.47;2.90;;;;;24.10;101484.00;;;;5065397;28;20241;-76
2022/04/13 09:24:36;;;;;;;7.88;2.72;;;;;24.00;101487.00;;;;5071806;28;20203;-76
2022/04/13 09:27:05;;;;;;;3.40;2.63;;;;;24.00;101494.00;;;;5055980;28;20260;-76
2022/04/13 09:29:32;;;;;;;5.15;3.35;;;;;24.10;101503.00;;;;5057257;28;20214;-75
2022/04/13 09:31:59;;;;;;;6.85;3.05;;;;;24.10;101496.00;;;;5059549;28;20227;-75
2022/04/13 09:34:27;;;;;;;7.05;3.85;;;;;24.10;101509.00;;;;5069168;28;20199;-75
2022/04/13 09:36:57;;;;;;;5.30;3.03;;;;;24.10;101507.00;;;;5066622;28;20227;-76
2022/04/13 09:39:24;;;;;;;3.67;2.30;;;;;24.10;101509.00;;;;5070316;28;20206;-77
2022/04/13 09:41:52;;;;;;;3.72;2.20;;;;;24.00;101521.00;;;;5068516;28;20642;-76
2022/04/13 09:44:20;;;;;;;5.40;2.13;;;;;24.00;101520.00;;;;5070731;28;20281;-76
2022/04/13 09:46:47;;;;;;;4.30;2.80;;;;;23.90;101532.00;;;;5066426;28;20207;-77
2022/04/13 09:49:16;;;;;;;6.03;2.50;;;;;23.90;101542.00;;;;5063217;28;20200;-76
2022/04/13 09:51:48;;;;;;;3.35;2.38;;;;;23.90;101534.00;;;;5071577;28;20252;-76
2022/04/13 09:54:18;;;;;;;4.93;2.97;;;;;24.00;101532.00;;;;5064333;28;20670;-77
2022/04/13 09:56:47;;;;;;;4.72;2.90;;;;;24.00;101542.00;;;;5071986;28;20206;-76
2022/04/13 09:59:24;;;;;;;5.85;3.33;;;;;24.00;101535.00;;;;5053136;28;20206;-77
2022/04/13 10:01:51;;;;;;;4.22;3.00;;;;;24.00;101547.00;;;;5051096;28;20191;-76
2022/04/13 10:04:25;;;;;;;5.50;2.55;;;;;24.00;101553.00;;;;5062207;28;20621;-76
2022/04/13 10:06:53;;;;;;;4.32;3.28;;;;;24.10;101543.00;;;;5059733;28;20761;-76
2022/04/13 10:09:23;;;;;;;6.38;3.00;;;;;24.10;101545.00;;;;5050961;28;20235;-76
2022/04/13 10:12:02;;;;;;;6.28;3.47;;;;;24.00;101558.00;;;;5054688;28;20684;-76
2022/04/13 10:14:29;;;;;;;5.95;3.00;;;;;24.10;101569.00;;;;5050695;28;20207;-76
2022/04/13 10:17:06;;;;;;;7.57;3.83;;;;;24.10;101561.00;;;;5055298;28;20204;-75
2022/04/13 10:19:34;;;;;;;7.22;3.30;;;;;24.10;101560.00;;;;5060822;28;20199;-76
2022/04/13 10:22:02;;;;;;;4.45;3.22;;;;;24.10;101564.00;;;;5067112;28;20199;-76
2022/04/13 10:24:32;;;;;;;3.92;3.00;;;;;24.10;101570.00;;;;5050967;28;20207;-76
2022/04/13 10:27:03;;;;;;;5.55;3.22;;;;;24.10;101567.00;;;;5053621;28;20728;-76
2022/04/13 10:29:32;;;;;;;9.95;3.33;;;;;24.20;101569.00;;;;5063654;28;20195;-76
2022/04/13 10:32:07;;;;;;;6.90;2.90;;;;;24.10;101572.00;;;;5058655;28;20568;-76
2022/04/13 10:34:36;;;;;;;7.28;3.55;;;;;24.20;101569.00;;;;5060255;28;20222;-76
2022/04/13 10:37:04;;;;;;;5.93;3.28;;;;;24.30;101581.00;;;;5056129;28;20223;-76
2022/04/13 10:39:33;;;;;;;4.05;2.45;;;;;24.30;101585.00;;;;5060211;28;20202;-76
2022/04/13 10:42:02;;;;;;;6.13;3.08;;;;;24.40;101585.00;;;;5051525;28;20246;-76
2022/04/13 10:44:33;;;;;;;3.58;2.53;;;;;24.40;101577.00;;;;5058240;28;20195;-75
2022/04/13 10:47:03;;;;;;;6.53;3.15;;;;;24.40;101579.00;;;;5071078;28;20285;-76
2022/04/13 10:49:38;;;;;;;3.70;2.63;;;;;24.40;101582.00;;;;5072603;28;20673;-76
2022/04/13 10:52:11;;;;;;;3.92;2.53;;;;;24.30;101591.00;;;;5060318;28;21065;-76
2022/04/13 10:54:43;;;;;;;4.65;2.05;;;;;24.30;101585.00;;;;5058206;28;20211;-75
2022/04/13 10:57:10;;;;;;;4.15;2.00;;;;;24.30;101587.00;;;;5069805;28;20191;-75
2022/04/13 10:59:48;;;;;;;3.65;2.15;;;;;24.20;101593.00;;;;5070459;28;20542;-75
2022/04/13 11:02:25;;;;;;;3.72;1.92;;;;;24.10;101597.00;;;;5069604;28;20201;-75
2022/04/13 11:04:54;;;;;;;4.53;2.83;;;;;24.20;101596.00;;;;5069970;28;20195;-75
2022/04/13 11:07:23;;;;;;;4.38;2.88;;;;;24.10;101598.00;;;;5070874;28;20195;-75
2022/04/13 11:09:55;;;;;;;7.10;3.33;;;;;24.10;101602.00;;;;5070855;28;20261;-75
2022/04/13 11:12:24;;;;;;;4.65;2.83;;;;;24.10;101604.00;;;;5058688;28;20685;-76
2022/04/13 11:14:53;;;;;;;9.20;2.85;;;;;24.00;101616.00;;;;5050865;28;20196;-75
2022/04/13 11:17:25;;;;;;;5.60;3.08;;;;;24.00;101615.00;;;;5068434;28;20604;-76
2022/04/13 11:20:12;;;;;;;4.13;2.42;;;;;24.00;101613.00;;;;5066853;28;20191;-75
2022/04/13 11:22:41;;;;;;;6.78;2.95;;;;;23.90;101598.00;;;;5062984;28;20213;-75
2022/04/13 11:25:10;;;;;;;6.03;3.10;;;;;23.90;101605.00;;;;5050082;28;20523;-75
2022/04/13 11:27:53;;;;;;;6.45;3.55;;;;;23.80;101603.00;;;;5048970;28;20203;-75
2022/04/13 11:30:21;;;;;;;7.93;3.88;;;;;23.90;101614.00;;;;5058345;28;20195;-75
2022/04/13 11:32:50;;;;;;;5.75;3.47;;;;;23.80;101612.00;;;;5051646;28;20206;-75
2022/04/13 11:35:25;;;;;;;5.90;3.67;;;;;23.70;101614.00;;;;5061318;28;20770;-75
2022/04/13 11:38:11;;;;;;;6.05;3.25;;;;;23.60;101608.00;;;;5058365;28;20290;-75
2022/04/13 11:41:04;;;;;;;5.80;3.20;;;;;23.60;101619.00;;;;5049328;28;20261;-75
2022/04/13 11:43:32;;;;;;;5.68;3.08;;;;;23.80;101637.00;;;;5058416;28;20197;-75
2022/04/13 11:46:01;;;;;;;4.90;2.85;;;;;23.70;101628.00;;;;5066821;28;20196;-75
2022/04/13 11:48:35;;;;;;;4.63;2.50;;;;;23.60;101624.00;;;;5067447;28;20610;-75
2022/04/13 11:51:25;;;;;;;3.45;2.25;;;;;23.50;101614.00;;;;5062020;28;20221;-75
2022/04/13 11:53:55;;;;;;;4.88;2.75;;;;;23.60;101619.00;;;;5059228;28;20282;-75
2022/04/13 11:56:33;;;;;;;6.93;3.70;;;;;23.50;101617.00;;;;5056058;28;20699;-75
2022/04/13 11:59:01;;;;;;;4.10;2.95;;;;;23.50;101621.00;;;;5067933;28;20191;-76
2022/04/13 12:01:28;;;;;;;4.38;2.83;;;;;23.50;101628.00;;;;5068898;28;20596;-76
2022/04/13 12:03:58;;;;;;;5.22;2.78;;;;;23.50;101625.00;;;;5053651;28;20548;-75
2022/04/13 12:06:26;;;;;;;4.30;2.05;;;;;23.50;101625.00;;;;5058300;28;20203;-76
2022/04/13 12:08:55;;;;;;;3.83;2.15;;;;;23.50;101632.00;;;;5067872;28;20195;-76
2022/04/13 12:11:24;;;;;;;4.07;2.22;;;;;23.40;101636.00;;;;5063620;28;20653;-76
2022/04/13 12:13:54;;;;;;;3.50;2.50;;;;;23.30;101632.00;;;;5058403;28;20199;-77
2022/04/13 12:16:24;;;;;;;8.00;2.60;;;;;23.30;101631.00;;;;5059891;28;20203;-75
2022/04/13 12:18:52;;;;;;;3.95;2.17;;;;;23.30;101629.00;;;;5054000;28;20202;-74
2022/04/13 12:21:23;;;;;;;2.80;2.30;;;;;23.30;101630.00;;;;5058835;28;20215;-75